АЭРОДРОМУУД

ICAO:
ZMCK
Нэр:
УЛААНБААТАР / Чингис Хаан
Ахц:
473849N 1064912E
020253 ZMUBYNYX
(A0498/22 NOTAMN
Q) ZMUB/QPITT/I /BO /A /000/999/4738N10649E005
A) ZMCK B) 2210060000 C) 2210192359
E) TRIGGER NOTAM - PERM AIRAC AIP AMDT 09/22 WEF 06 OCT 2022 CHANGES OF SID, STAR AND IAP.)
- 1 month ago -
METAR
No records found.
TAF
TAF ZMCK 050750Z 0509/0518 VRB02MPS CAVOK=
- 12 hours ago -
TAF ZMCK 050750Z 0509/0518 VRB02MPS CAVOK=
- 12 hours ago -
TAF ZMCK 050430Z 0506/0612 VRB02MPS 9999 SCT033 SCT100 TX06/0507Z TNM08/0522Z=
- 15 hours ago -
TAF ZMCK 050430Z 0506/0612 VRB02MPS 9999 SCT033 SCT100 TX06/0507Z TNM08/0522Z=
- 15 hours ago -